Time;durP1;ratioP1;P1;durP2;ratioP2;P2;SDS_P1;SDS_P2;PMS_P1;PMS_P2;Temp;Humidity;BMP_temperature;BMP_pressure;BME280_temperature;BME280_humidity;BME280_pressure;Samples;Min_cycle;Max_cycle;Signal;HPM_P1;HPM_P2
2022/09/13 00:00:34;;;;;;;;;;;17.30;99.90;;;;;;5054763;28;20022;-66
2022/09/13 00:03:00;;;;;;;;;;;17.30;99.90;;;;;;5073051;28;19923;-66
2022/09/13 00:05:25;;;;;;;;;;;17.10;99.90;;;;;;5073458;28;19931;-67
2022/09/13 00:07:51;;;;;;;;;;;17.30;99.90;;;;;;5073248;28;19931;-66
2022/09/13 00:10:16;;;;;;;;;;;17.20;99.90;;;;;;5072697;28;20120;-66
2022/09/13 00:12:42;;;;;;;;;;;17.30;99.90;;;;;;5071576;28;20460;-67
2022/09/13 00:15:08;;;;;;;;;;;17.20;99.90;;;;;;5055207;28;19935;-70
2022/09/13 00:17:34;;;;;;;;;;;17.40;99.90;;;;;;5072949;28;19924;-67
2022/09/13 00:19:59;;;;;;;;;;;17.20;99.90;;;;;;5073243;28;19981;-68
2022/09/13 00:22:25;;;;;;;;;;;17.20;99.90;;;;;;5055191;28;20416;-68
2022/09/13 00:24:51;;;;;;;;;;;17.20;99.90;;;;;;5072656;28;19924;-66
2022/09/13 00:27:16;;;;;;;;;;;17.40;99.90;;;;;;5072379;28;20388;-69
2022/09/13 00:29:42;;;;;;;;;;;17.40;99.90;;;;;;5070832;28;20245;-67
2022/09/13 00:32:08;;;;;;;;;;;17.40;99.90;;;;;;5072154;28;20212;-70
2022/09/13 00:34:33;;;;;;;;;;;17.40;99.90;;;;;;5072634;28;20233;-68
2022/09/13 00:36:59;;;;;;;;;;;17.20;99.90;;;;;;5074375;28;19928;-70
2022/09/13 00:39:24;;;;;;;;;;;17.40;99.90;;;;;;5091427;28;20297;-66
2022/09/13 00:41:50;;;;;;;;;;;17.20;99.90;;;;;;5091346;28;20214;-67
2022/09/13 00:44:34;;;;;;;;;;;17.30;99.90;;;;;;5091164;28;20102;-67
2022/09/13 00:47:00;;;;;;;;;;;17.30;99.90;;;;;;5090027;28;20402;-67
2022/09/13 00:49:37;;;;;;;;;;;17.30;99.90;;;;;;5091291;28;19919;-67
2022/09/13 00:52:06;;;;;;;;;;;17.30;99.90;;;;;;5090452;28;20492;-70
2022/09/13 00:54:35;;;;;;;;;;;17.30;99.90;;;;;;5073536;28;19924;-68
2022/09/13 00:57:02;;;;;;;;;;;17.10;99.90;;;;;;5072720;28;19946;-69
2022/09/13 00:59:31;;;;;;;;;;;17.10;99.90;;;;;;5073027;28;19924;-69
2022/09/13 01:01:56;;;;;;;;;;;17.30;99.90;;;;;;5074386;28;19977;-67
2022/09/13 01:04:24;;;;;;;;;;;17.10;99.90;;;;;;5072881;28;19923;-68
2022/09/13 01:06:52;;;;;;;;;;;17.10;99.90;;;;;;5074003;28;19928;-67
2022/09/13 01:09:17;;;;;;;;;;;17.00;99.90;;;;;;5072504;28;20297;-66
2022/09/13 01:11:43;;;;;;;;;;;17.20;99.90;;;;;;5074783;28;19963;-67
2022/09/13 01:14:08;;;;;;;;;;;17.20;99.90;;;;;;5074433;28;20354;-65
2022/09/13 01:16:34;;;;;;;;;;;17.00;99.90;;;;;;5072867;28;19954;-66
2022/09/13 01:19:00;;;;;;;;;;;17.10;99.90;;;;;;5074391;28;20052;-67
2022/09/13 01:21:29;;;;;;;;;;;17.20;99.90;;;;;;5074708;28;19919;-68
2022/09/13 01:24:13;;;;;;;;;;;17.00;99.90;;;;;;5075561;28;20230;-66
2022/09/13 01:26:51;;;;;;;;;;;17.00;99.90;;;;;;5074283;28;20339;-67
2022/09/13 01:29:36;;;;;;;;;;;17.10;99.90;;;;;;5074046;28;19931;-69
2022/09/13 01:32:20;;;;;;;;;;;17.10;99.90;;;;;;5073592;28;19970;-68
2022/09/13 01:35:18;;;;;;;;;;;17.00;99.90;;;;;;5072856;28;19930;-67
2022/09/13 01:37:44;;;;;;;;;;;17.00;99.90;;;;;;5039926;28;20283;-67
2022/09/13 01:40:22;;;;;;;;;;;16.80;99.90;;;;;;5073452;28;19936;-65
2022/09/13 01:42:56;;;;;;;;;;;16.80;99.90;;;;;;5073489;28;20592;-68
2022/09/13 01:45:28;;;;;;;;;;;17.00;99.90;;;;;;5072504;28;20015;-67
2022/09/13 01:47:54;;;;;;;;;;;16.80;99.90;;;;;;5073845;28;20602;-68
2022/09/13 01:50:41;;;;;;;;;;;17.00;99.90;;;;;;5071593;28;19935;-67
2022/09/13 01:53:12;;;;;;;;;;;16.70;99.90;;;;;;5073308;28;20619;-66
2022/09/13 01:55:37;;;;;;;;;;;17.00;99.90;;;;;;5073497;28;20303;-66
2022/09/13 01:58:03;;;;;;;;;;;16.90;99.90;;;;;;5081927;28;19931;-67
2022/09/13 02:00:30;;;;;;;;;;;16.80;99.90;;;;;;5091111;28;19924;-66
2022/09/13 02:03:01;;;;;;;;;;;16.70;99.90;;;;;;5092429;28;20707;-67
2022/09/13 02:05:31;;;;;;;;;;;16.80;99.90;;;;;;5092786;28;19920;-67
2022/09/13 02:07:59;;;;;;;;;;;16.80;99.90;;;;;;5093086;28;20004;-67
2022/09/13 02:10:30;;;;;;;;;;;16.80;99.90;;;;;;5091471;28;19924;-69
2022/09/13 02:12:57;;;;;;;;;;;17.00;99.90;;;;;;5089741;28;19951;-66
2022/09/13 02:15:28;;;;;;;;;;;16.70;99.90;;;;;;5089398;28;20283;-70
2022/09/13 02:18:01;;;;;;;;;;;16.70;99.90;;;;;;5091021;28;20421;-66
2022/09/13 02:20:28;;;;;;;;;;;17.00;99.90;;;;;;5091164;28;20226;-67
2022/09/13 02:22:56;;;;;;;;;;;16.70;99.90;;;;;;5088880;28;19942;-67
2022/09/13 02:25:23;;;;;;;;;;;17.00;99.90;;;;;;5087951;28;20484;-67
2022/09/13 02:27:51;;;;;;;;;;;17.00;99.90;;;;;;5089558;28;20047;-67
2022/09/13 02:30:18;;;;;;;;;;;16.70;99.90;;;;;;5087791;28;19926;-67
2022/09/13 02:32:43;;;;;;;;;;;16.90;99.90;;;;;;5090088;28;19923;-67
2022/09/13 02:35:15;;;;;;;;;;;17.00;99.90;;;;;;5089946;28;20084;-66
2022/09/13 02:37:42;;;;;;;;;;;16.90;99.90;;;;;;5090083;28;19930;-66
2022/09/13 02:40:11;;;;;;;;;;;17.10;99.90;;;;;;5089963;28;19947;-66
2022/09/13 02:42:42;;;;;;;;;;;17.20;99.90;;;;;;5090162;28;20327;-67
2022/09/13 02:45:09;;;;;;;;;;;16.90;99.90;;;;;;5090677;28;20038;-67
2022/09/13 02:47:40;;;;;;;;;;;16.80;99.90;;;;;;5090103;28;19924;-68
2022/09/13 02:50:06;;;;;;;;;;;16.90;99.90;;;;;;5071259;28;20355;-67
2022/09/13 02:52:37;;;;;;;;;;;17.00;99.90;;;;;;5070598;28;19920;-68
2022/09/13 02:55:13;;;;;;;;;;;17.10;99.90;;;;;;5070537;28;19997;-69
2022/09/13 02:57:47;;;;;;;;;;;16.90;99.90;;;;;;5070968;28;19970;-68
2022/09/13 03:00:13;;;;;;;;;;;17.20;99.90;;;;;;5070470;28;19931;-67
2022/09/13 03:02:39;;;;;;;;;;;17.10;99.90;;;;;;5070206;28;19920;-69
2022/09/13 03:05:05;;;;;;;;;;;17.20;99.90;;;;;;5070755;28;19923;-66
2022/09/13 03:07:30;;;;;;;;;;;16.90;99.90;;;;;;5070842;28;20381;-67
2022/09/13 03:09:59;;;;;;;;;;;17.20;99.90;;;;;;5070833;28;20367;-67
2022/09/13 03:12:36;;;;;;;;;;;17.00;99.90;;;;;;5070927;28;20416;-68
2022/09/13 03:15:21;;;;;;;;;;;17.10;99.90;;;;;;5072788;28;20755;-70
2022/09/13 03:18:08;;;;;;;;;;;17.00;99.90;;;;;;5075363;28;19981;-70
2022/09/13 03:20:34;;;;;;;;;;;16.80;99.90;;;;;;5083169;28;19920;-67
2022/09/13 03:22:59;;;;;;;;;;;17.00;99.90;;;;;;5095562;28;19934;-66
2022/09/13 03:25:28;;;;;;;;;;;16.70;99.90;;;;;;5096133;28;19924;-68
2022/09/13 03:28:00;;;;;;;;;;;16.90;99.90;;;;;;5076376;28;20379;-67
2022/09/13 03:30:25;;;;;;;;;;;16.60;99.90;;;;;;5076596;28;19934;-69
2022/09/13 03:33:01;;;;;;;;;;;16.90;99.90;;;;;;5076434;28;19924;-68
2022/09/13 03:35:39;;;;;;;;;;;16.90;99.90;;;;;;5076195;28;20198;-67
2022/09/13 03:38:04;;;;;;;;;;;16.90;99.90;;;;;;5075503;28;20291;-67
2022/09/13 03:40:50;;;;;;;;;;;16.90;99.90;;;;;;5075916;28;19924;-69
2022/09/13 03:43:35;;;;;;;;;;;16.90;99.90;;;;;;5081405;28;19923;-67
2022/09/13 03:46:06;;;;;;;;;;;16.60;99.90;;;;;;5076344;28;19993;-66
2022/09/13 03:48:35;;;;;;;;;;;16.60;99.90;;;;;;5074829;28;20411;-69
2022/09/13 03:51:00;;;;;;;;;;;16.80;99.90;;;;;;5087747;28;20242;-67
2022/09/13 03:53:27;;;;;;;;;;;16.90;99.90;;;;;;5093982;28;20126;-67
2022/09/13 03:55:53;;;;;;;;;;;16.90;99.90;;;;;;5095527;27;19930;-67
2022/09/13 03:58:19;;;;;;;;;;;16.90;99.90;;;;;;5081693;28;19928;-66
2022/09/13 04:00:45;;;;;;;;;;;16.70;99.90;;;;;;5088487;28;20002;-66
2022/09/13 04:03:11;;;;;;;;;;;16.70;99.90;;;;;;5074174;28;20575;-69
2022/09/13 04:05:37;;;;;;;;;;;16.70;99.90;;;;;;5075483;28;19924;-70
2022/09/13 04:08:04;;;;;;;;;;;16.70;99.90;;;;;;5093662;28;20277;-67
2022/09/13 04:10:30;;;;;;;;;;;16.80;99.90;;;;;;5095514;28;20014;-67
2022/09/13 04:12:57;;;;;;;;;;;16.70;99.90;;;;;;5095477;28;20297;-67
2022/09/13 04:15:23;;;;;;;;;;;16.80;99.90;;;;;;5095003;27;19987;-69
2022/09/13 04:17:49;;;;;;;;;;;16.70;99.90;;;;;;5095117;28;20015;-68
2022/09/13 04:20:15;;;;;;;;;;;16.60;99.90;;;;;;5077399;28;20042;-67
2022/09/13 04:22:41;;;;;;;;;;;16.90;99.90;;;;;;5075029;28;19974;-67
2022/09/13 04:25:07;;;;;;;;;;;16.60;99.90;;;;;;5075411;28;20250;-69
2022/09/13 04:27:34;;;;;;;;;;;16.70;99.90;;;;;;5074684;28;20732;-67
2022/09/13 04:30:00;;;;;;;;;;;17.00;99.90;;;;;;5073878;28;19949;-67
2022/09/13 04:32:25;;;;;;;;;;;16.80;99.90;;;;;;5075354;28;19924;-67
2022/09/13 04:34:51;;;;;;;;;;;17.00;99.90;;;;;;5086082;28;19930;-69
2022/09/13 04:37:17;;;;;;;;;;;16.70;99.90;;;;;;5074648;28;20394;-66
2022/09/13 04:39:42;;;;;;;;;;;16.80;99.90;;;;;;5092979;28;19923;-66
2022/09/13 04:42:09;;;;;;;;;;;16.80;99.90;;;;;;5073966;28;19923;-67
2022/09/13 04:44:34;;;;;;;;;;;16.90;99.90;;;;;;5072017;28;19924;-68
2022/09/13 04:47:00;;;;;;;;;;;16.80;99.90;;;;;;5072561;28;19940;-69
2022/09/13 04:49:25;;;;;;;;;;;16.70;99.90;;;;;;5072958;28;20207;-67
2022/09/13 04:51:51;;;;;;;;;;;17.00;99.90;;;;;;5072405;28;19930;-67
2022/09/13 04:54:17;;;;;;;;;;;16.80;99.90;;;;;;5072087;28;20426;-66
2022/09/13 04:56:42;;;;;;;;;;;16.70;99.90;;;;;;5072706;28;20299;-67
2022/09/13 04:59:09;;;;;;;;;;;16.70;99.90;;;;;;5072650;28;20279;-67
2022/09/13 05:01:36;;;;;;;;;;;16.80;99.90;;;;;;5071931;28;19924;-67
2022/09/13 05:04:02;;;;;;;;;;;17.10;99.90;;;;;;5072330;28;20441;-68
2022/09/13 05:06:28;;;;;;;;;;;16.80;99.90;;;;;;5072591;28;20040;-71
2022/09/13 05:08:54;;;;;;;;;;;16.70;99.90;;;;;;5072870;28;19924;-70
2022/09/13 05:11:21;;;;;;;;;;;17.10;99.90;;;;;;5074667;28;19924;-69
2022/09/13 05:13:51;;;;;;;;;;;16.70;99.90;;;;;;5076243;28;20471;-69
2022/09/13 05:16:17;;;;;;;;;;;17.00;99.90;;;;;;5076676;28;20414;-68
2022/09/13 05:18:42;;;;;;;;;;;17.00;99.90;;;;;;5075324;28;20342;-68
2022/09/13 05:21:08;;;;;;;;;;;17.00;99.90;;;;;;5077277;28;20385;-69
2022/09/13 05:23:34;;;;;;;;;;;17.00;99.90;;;;;;5075251;28;20295;-67
2022/09/13 05:26:01;;;;;;;;;;;16.70;99.90;;;;;;5075350;28;19934;-68
2022/09/13 05:28:30;;;;;;;;;;;17.00;99.90;;;;;;5074860;28;20154;-67
2022/09/13 05:30:57;;;;;;;;;;;16.60;99.90;;;;;;5074473;28;19931;-68
2022/09/13 05:33:23;;;;;;;;;;;16.50;99.90;;;;;;5072768;28;20256;-69
2022/09/13 05:35:49;;;;;;;;;;;16.60;99.90;;;;;;5074315;28;20245;-68
2022/09/13 05:38:14;;;;;;;;;;;16.70;99.90;;;;;;5073552;28;20141;-68
2022/09/13 05:40:40;;;;;;;;;;;16.60;99.90;;;;;;5074639;28;20037;-69
2022/09/13 05:43:05;;;;;;;;;;;16.60;99.90;;;;;;5072535;28;19923;-67
2022/09/13 05:45:31;;;;;;;;;;;16.50;99.90;;;;;;5073943;28;20365;-68
2022/09/13 05:47:56;;;;;;;;;;;16.60;99.90;;;;;;5072213;28;20371;-68
2022/09/13 05:50:22;;;;;;;;;;;16.40;99.90;;;;;;5073517;28;20080;-65
2022/09/13 05:52:52;;;;;;;;;;;16.30;99.90;;;;;;5075186;28;20213;-67
2022/09/13 05:55:17;;;;;;;;;;;16.60;99.90;;;;;;5091279;28;19976;-68
2022/09/13 05:57:43;;;;;;;;;;;16.40;99.90;;;;;;5090534;28;20519;-71
2022/09/13 06:00:09;;;;;;;;;;;16.60;99.90;;;;;;5084747;28;20423;-68
2022/09/13 06:02:34;;;;;;;;;;;16.80;99.90;;;;;;5070727;28;19923;-68
2022/09/13 06:05:00;;;;;;;;;;;16.80;99.90;;;;;;5070553;28;19924;-68
2022/09/13 06:07:26;;;;;;;;;;;16.90;99.90;;;;;;5069608;28;19928;-70
2022/09/13 06:09:52;;;;;;;;;;;16.80;99.90;;;;;;5071055;28;20145;-68
2022/09/13 06:12:17;;;;;;;;;;;16.60;99.90;;;;;;5070979;28;19924;-68
2022/09/13 06:14:43;;;;;;;;;;;17.00;99.90;;;;;;5089636;28;19919;-67
2022/09/13 06:17:08;;;;;;;;;;;17.00;99.90;;;;;;5089748;28;19923;-68
2022/09/13 06:19:34;;;;;;;;;;;17.00;99.90;;;;;;5087927;28;19923;-68
2022/09/13 06:21:59;;;;;;;;;;;17.00;99.90;;;;;;5089735;28;19949;-69
2022/09/13 06:24:25;;;;;;;;;;;17.10;99.90;;;;;;5090180;28;20064;-68
2022/09/13 06:26:50;;;;;;;;;;;17.20;99.90;;;;;;5090027;28;20619;-67
2022/09/13 06:29:16;;;;;;;;;;;17.30;99.90;;;;;;5088222;28;19946;-68
2022/09/13 06:31:43;;;;;;;;;;;17.30;99.90;;;;;;5072418;28;20373;-70
2022/09/13 06:34:10;;;;;;;;;;;17.30;99.90;;;;;;5070046;28;20903;-67
2022/09/13 06:36:36;;;;;;;;;;;17.10;99.90;;;;;;5079628;28;19961;-67
2022/09/13 06:39:01;;;;;;;;;;;17.20;99.90;;;;;;5089530;28;20030;-67
2022/09/13 06:41:27;;;;;;;;;;;17.20;99.90;;;;;;5072587;28;19959;-68
2022/09/13 06:43:54;;;;;;;;;;;17.30;99.90;;;;;;5073682;28;19924;-67
2022/09/13 06:46:20;;;;;;;;;;;17.60;99.90;;;;;;5089896;28;20048;-69
2022/09/13 06:48:45;;;;;;;;;;;17.60;99.90;;;;;;5070737;28;20374;-67
2022/09/13 06:51:12;;;;;;;;;;;17.50;99.90;;;;;;5074684;28;20424;-68
2022/09/13 06:53:38;;;;;;;;;;;17.80;99.90;;;;;;5074313;28;19930;-68
2022/09/13 06:56:03;;;;;;;;;;;17.80;99.90;;;;;;5073174;28;19923;-67
2022/09/13 06:58:30;;;;;;;;;;;17.80;99.90;;;;;;5073998;28;19928;-69
2022/09/13 07:01:10;;;;;;;;;;;17.70;99.90;;;;;;5073651;28;19931;-66
2022/09/13 07:03:40;;;;;;;;;;;17.80;99.90;;;;;;5072368;28;20593;-68
2022/09/13 07:06:12;;;;;;;;;;;17.90;99.90;;;;;;5074354;28;19941;-68
2022/09/13 07:08:39;;;;;;;;;;;18.10;99.90;;;;;;5073402;28;20317;-67
2022/09/13 07:11:04;;;;;;;;;;;18.50;99.90;;;;;;5073628;28;19924;-69
2022/09/13 07:13:30;;;;;;;;;;;19.10;99.90;;;;;;5073407;28;19920;-67
2022/09/13 07:15:56;;;;;;;;;;;19.30;99.90;;;;;;5073799;28;19982;-70
2022/09/13 07:18:21;;;;;;;;;;;19.40;99.90;;;;;;5074025;28;19930;-70
2022/09/13 07:20:47;;;;;;;;;;;19.40;99.90;;;;;;5056046;28;19955;-70
2022/09/13 07:23:12;;;;;;;;;;;19.30;99.90;;;;;;5055780;28;20409;-68
2022/09/13 07:25:38;;;;;;;;;;;19.50;99.90;;;;;;5055666;28;20494;-68
2022/09/13 07:28:04;;;;;;;;;;;19.70;99.90;;;;;;5072279;28;19924;-66
2022/09/13 07:30:29;;;;;;;;;;;19.60;99.90;;;;;;5073295;28;19924;-68
2022/09/13 07:32:55;;;;;;;;;;;19.70;99.90;;;;;;5073428;28;19924;-69
2022/09/13 07:35:20;;;;;;;;;;;19.70;99.90;;;;;;5074031;28;20007;-68
2022/09/13 07:37:46;;;;;;;;;;;19.50;99.90;;;;;;5074361;28;19920;-66
2022/09/13 07:40:12;;;;;;;;;;;19.20;99.90;;;;;;5074013;28;20417;-68
2022/09/13 07:42:38;;;;;;;;;;;19.20;99.90;;;;;;5073913;28;19963;-67
2022/09/13 07:45:03;;;;;;;;;;;19.30;99.90;;;;;;5074334;28;21021;-67
2022/09/13 07:47:32;;;;;;;;;;;19.50;99.90;;;;;;5074528;28;19924;-67
2022/09/13 07:49:58;;;;;;;;;;;19.40;99.90;;;;;;5074518;28;20022;-69
2022/09/13 07:52:23;;;;;;;;;;;19.40;99.90;;;;;;5074055;28;19920;-66
2022/09/13 07:54:49;;;;;;;;;;;19.80;99.90;;;;;;5072140;28;20261;-67
2022/09/13 07:57:14;;;;;;;;;;;20.00;99.90;;;;;;5071975;28;19923;-69
2022/09/13 07:59:40;;;;;;;;;;;20.20;99.90;;;;;;5072170;28;19931;-68
2022/09/13 08:02:08;;;;;;;;;;;20.50;99.90;;;;;;5073364;28;20449;-67
2022/09/13 08:04:33;;;;;;;;;;;20.40;99.90;;;;;;5074067;28;19927;-68
2022/09/13 08:06:59;;;;;;;;;;;20.80;99.90;;;;;;5072143;28;20009;-67
2022/09/13 08:09:24;;;;;;;;;;;20.60;99.90;;;;;;5072548;28;19924;-69
2022/09/13 08:11:51;;;;;;;;;;;20.60;99.90;;;;;;5071316;28;19924;-67
2022/09/13 08:14:18;;;;;;;;;;;20.80;99.90;;;;;;5090900;28;19926;-70
2022/09/13 08:16:43;;;;;;;;;;;20.90;99.90;;;;;;5091969;28;19959;-67
2022/09/13 08:19:10;;;;;;;;;;;20.80;99.90;;;;;;5091038;28;20026;-69
2022/09/13 08:21:38;;;;;;;;;;;20.90;99.90;;;;;;5092844;28;19924;-69
2022/09/13 08:24:04;;;;;;;;;;;20.60;99.90;;;;;;5092036;28;20007;-67
2022/09/13 08:26:31;;;;;;;;;;;20.50;99.90;;;;;;5092221;28;20014;-67
2022/09/13 08:28:57;;;;;;;;;;;21.00;99.90;;;;;;5093712;28;19924;-68
2022/09/13 08:31:23;;;;;;;;;;;20.60;99.90;;;;;;5092860;28;20608;-68
2022/09/13 08:33:48;;;;;;;;;;;20.80;99.90;;;;;;5093595;28;20161;-68
2022/09/13 08:36:14;;;;;;;;;;;20.90;99.90;;;;;;5092986;28;20469;-69
2022/09/13 08:38:47;;;;;;;;;;;21.00;99.90;;;;;;5088142;28;19931;-68
2022/09/13 08:41:25;;;;;;;;;;;21.10;99.90;;;;;;5074278;28;20306;-69
2022/09/13 08:44:16;;;;;;;;;;;20.90;99.90;;;;;;5092405;28;20390;-69
2022/09/13 08:46:44;;;;;;;;;;;21.20;99.90;;;;;;5089599;28;20434;-68
2022/09/13 08:49:12;;;;;;;;;;;21.50;99.90;;;;;;5083022;28;19924;-71
2022/09/13 08:51:43;;;;;;;;;;;21.50;99.90;;;;;;5091427;28;19926;-70
2022/09/13 08:54:13;;;;;;;;;;;21.30;99.90;;;;;;5090752;28;19928;-68
2022/09/13 08:56:51;;;;;;;;;;;21.40;99.90;;;;;;5070384;28;19919;-69
2022/09/13 08:59:40;;;;;;;;;;;21.10;99.90;;;;;;5071598;28;19974;-68
2022/09/13 09:02:11;;;;;;;;;;;20.50;99.90;;;;;;5063172;28;19920;-68
2022/09/13 09:04:37;;;;;;;;;;;20.20;99.90;;;;;;5071842;28;19947;-67
2022/09/13 09:07:07;;;;;;;;;;;20.30;99.90;;;;;;5071886;28;19934;-67
2022/09/13 09:09:40;;;;;;;;;;;20.50;99.90;;;;;;5071351;28;19924;-68
2022/09/13 09:12:13;;;;;;;;;;;21.10;99.90;;;;;;5071485;28;20500;-68
2022/09/13 09:14:41;;;;;;;;;;;21.50;99.90;;;;;;5071840;28;19924;-69
2022/09/13 09:17:13;;;;;;;;;;;21.40;99.90;;;;;;5069805;28;20386;-68
2022/09/13 09:19:47;;;;;;;;;;;21.80;99.90;;;;;;5071349;28;19984;-68
2022/09/13 09:22:17;;;;;;;;;;;21.80;99.90;;;;;;5070517;28;20632;-68
2022/09/13 09:24:45;;;;;;;;;;;21.60;99.90;;;;;;5071452;28;19982;-69
2022/09/13 09:27:15;;;;;;;;;;;21.90;99.90;;;;;;5072850;28;19920;-68
2022/09/13 09:29:45;;;;;;;;;;;21.70;99.90;;;;;;5073478;28;20018;-68
2022/09/13 09:32:13;;;;;;;;;;;22.00;99.90;;;;;;5071951;28;20478;-69
2022/09/13 09:34:41;;;;;;;;;;;22.20;99.90;;;;;;5072136;28;20009;-67
2022/09/13 09:37:11;;;;;;;;;;;22.40;99.90;;;;;;5072385;28;20010;-70
2022/09/13 09:39:38;;;;;;;;;;;22.30;99.90;;;;;;5073978;28;20562;-68
2022/09/13 09:42:13;;;;;;;;;;;22.70;99.90;;;;;;5073922;28;19931;-67
2022/09/13 09:44:39;;;;;;;;;;;22.10;99.90;;;;;;5074115;28;19928;-67
2022/09/13 09:47:11;;;;;;;;;;;22.00;99.90;;;;;;5074111;28;20421;-66
2022/09/13 09:50:09;;;;;;;;;;;21.10;99.90;;;;;;5073485;28;19920;-67
2022/09/13 09:52:55;;;;;;;;;;;20.90;99.90;;;;;;5073292;28;19924;-68
2022/09/13 09:55:21;;;;;;;;;;;20.70;99.90;;;;;;5073357;28;19942;-70
2022/09/13 09:57:50;;;;;;;;;;;20.50;99.90;;;;;;5072390;28;20025;-70
2022/09/13 10:00:16;;;;;;;;;;;20.30;99.90;;;;;;5072440;28;20010;-69
2022/09/13 10:02:45;;;;;;;;;;;20.90;99.90;;;;;;5071426;28;19971;-67
2022/09/13 10:05:13;;;;;;;;;;;21.00;99.90;;;;;;5088447;28;19967;-66
2022/09/13 10:07:39;;;;;;;;;;;21.10;99.90;;;;;;5089893;28;19928;-67
2022/09/13 10:10:07;;;;;;;;;;;20.90;99.90;;;;;;5091087;28;19936;-67
2022/09/13 10:12:35;;;;;;;;;;;21.30;99.90;;;;;;5092304;28;19975;-67
2022/09/13 10:15:04;;;;;;;;;;;21.30;99.90;;;;;;5092012;28;19919;-68
2022/09/13 10:17:30;;;;;;;;;;;21.70;99.90;;;;;;5091448;28;19923;-69
2022/09/13 10:20:00;;;;;;;;;;;22.20;99.90;;;;;;5078458;28;19923;-67
2022/09/13 10:22:26;;;;;;;;;;;21.50;99.90;;;;;;5070885;28;19924;-69
2022/09/13 10:24:52;;;;;;;;;;;21.20;99.90;;;;;;5070659;28;20346;-71
2022/09/13 10:27:35;;;;;;;;;;;21.60;99.90;;;;;;5070864;28;20688;-68
2022/09/13 10:30:02;;;;;;;;;;;22.00;99.90;;;;;;5070651;28;19923;-69
2022/09/13 10:32:29;;;;;;;;;;;21.60;99.90;;;;;;5070583;28;19920;-68
2022/09/13 10:34:56;;;;;;;;;;;22.70;99.90;;;;;;5070825;28;19977;-67
2022/09/13 10:37:30;;;;;;;;;;;23.50;99.40;;;;;;5071125;28;19924;-67
2022/09/13 10:40:00;;;;;;;;;;;22.90;99.60;;;;;;5071138;28;20265;-68
2022/09/13 10:42:26;;;;;;;;;;;23.30;95.90;;;;;;5086339;28;19923;-68
2022/09/13 10:45:00;;;;;;;;;;;23.20;95.70;;;;;;5089837;28;19919;-70
2022/09/13 10:47:28;;;;;;;;;;;22.20;96.80;;;;;;5090630;28;20468;-67
2022/09/13 10:49:55;;;;;;;;;;;22.40;98.90;;;;;;5088877;28;19991;-67
2022/09/13 10:52:32;;;;;;;;;;;22.20;98.60;;;;;;5090358;28;20018;-68
2022/09/13 10:55:17;;;;;;;;;;;21.90;97.40;;;;;;5090021;28;20395;-67
2022/09/13 10:57:43;;;;;;;;;;;22.50;99.00;;;;;;5090578;28;19923;-67
2022/09/13 11:00:11;;;;;;;;;;;22.90;99.90;;;;;;5090997;28;20016;-68
2022/09/13 11:02:36;;;;;;;;;;;22.70;99.60;;;;;;5090099;28;19920;-67
2022/09/13 11:05:14;;;;;;;;;;;23.20;99.40;;;;;;5091799;28;19927;-67
2022/09/13 11:07:52;;;;;;;;;;;22.40;98.30;;;;;;5091927;28;19999;-71
2022/09/13 11:10:23;;;;;;;;;;;22.40;99.90;;;;;;5092985;28;20401;-66
2022/09/13 11:13:01;;;;;;;;;;;21.90;99.90;;;;;;5092294;28;19927;-72
2022/09/13 11:15:33;;;;;;;;;;;22.20;99.90;;;;;;5092153;28;19924;-66
2022/09/13 11:18:02;;;;;;;;;;;22.50;99.10;;;;;;5092061;28;19927;-67
2022/09/13 11:20:40;;;;;;;;;;;22.10;98.80;;;;;;5092048;28;20521;-71
2022/09/13 11:23:20;;;;;;;;;;;21.90;98.00;;;;;;5072297;28;19923;-68
2022/09/13 11:25:55;;;;;;;;;;;22.10;99.30;;;;;;5072280;28;20851;-67
2022/09/13 11:28:23;;;;;;;;;;;21.70;98.30;;;;;;5077275;28;19927;-66
2022/09/13 11:31:07;;;;;;;;;;;22.10;99.90;;;;;;5070937;28;19928;-68
2022/09/13 11:33:33;;;;;;;;;;;22.90;97.40;;;;;;5072595;28;20725;-67
2022/09/13 11:36:18;;;;;;;;;;;23.40;97.10;;;;;;5074166;28;20376;-67
2022/09/13 11:38:44;;;;;;;;;;;23.10;97.10;;;;;;5064122;28;19924;-68
2022/09/13 11:41:27;;;;;;;;;;;21.80;99.90;;;;;;5080385;28;19927;-71
2022/09/13 11:44:13;;;;;;;;;;;21.30;99.90;;;;;;5092356;28;20010;-68
2022/09/13 11:46:45;;;;;;;;;;;21.40;99.90;;;;;;5095468;28;19924;-69
2022/09/13 11:49:22;;;;;;;;;;;22.00;99.90;;;;;;5095429;28;19966;-67
2022/09/13 11:52:07;;;;;;;;;;;22.10;99.90;;;;;;5096276;27;20008;-67
2022/09/13 11:54:51;;;;;;;;;;;21.70;99.90;;;;;;5095188;28;20480;-67
2022/09/13 11:57:25;;;;;;;;;;;22.50;99.90;;;;;;5092728;28;19931;-68
2022/09/13 11:59:56;;;;;;;;;;;23.20;98.90;;;;;;5076197;28;20014;-67
2022/09/13 12:02:48;;;;;;;;;;;22.40;98.50;;;;;;5075497;28;19969;-67
2022/09/13 12:05:14;;;;;;;;;;;21.90;99.90;;;;;;5070494;28;20521;-67
2022/09/13 12:07:43;;;;;;;;;;;22.00;99.40;;;;;;5074497;28;19920;-69
2022/09/13 12:10:15;;;;;;;;;;;21.40;99.90;;;;;;5075313;28;20266;-69
2022/09/13 12:12:41;;;;;;;;;;;21.90;99.90;;;;;;5074865;28;19981;-67
2022/09/13 12:15:16;;;;;;;;;;;21.70;99.90;;;;;;5075225;28;19924;-67
2022/09/13 12:17:44;;;;;;;;;;;21.70;99.90;;;;;;5076371;28;20496;-68
2022/09/13 12:20:23;;;;;;;;;;;21.90;99.90;;;;;;5075412;28;20390;-67
2022/09/13 12:22:50;;;;;;;;;;;22.70;99.80;;;;;;5074754;28;20723;-72
2022/09/13 12:25:23;;;;;;;;;;;22.30;99.90;;;;;;5073984;28;19978;-69
2022/09/13 12:28:02;;;;;;;;;;;22.60;99.60;;;;;;5076011;28;19935;-65
2022/09/13 12:30:36;;;;;;;;;;;23.00;98.40;;;;;;5075386;28;20424;-68
2022/09/13 12:33:04;;;;;;;;;;;23.20;95.80;;;;;;5073787;28;20021;-68
2022/09/13 12:35:31;;;;;;;;;;;22.90;94.30;;;;;;5072984;28;19935;-68
2022/09/13 12:37:57;;;;;;;;;;;22.60;95.60;;;;;;5073637;28;20257;-68
2022/09/13 12:40:45;;;;;;;;;;;22.50;98.70;;;;;;5072783;28;20050;-67
2022/09/13 12:43:22;;;;;;;;;;;21.50;99.50;;;;;;5072743;28;20361;-69
2022/09/13 12:45:59;;;;;;;;;;;21.50;99.90;;;;;;5072692;28;20321;-69
2022/09/13 12:48:45;;;;;;;;;;;21.60;99.90;;;;;;5083406;28;20466;-67
2022/09/13 12:51:29;;;;;;;;;;;22.30;99.90;;;;;;5070373;28;20559;-70
2022/09/13 12:54:05;;;;;;;;;;;22.30;97.80;;;;;;5092138;28;19924;-70
2022/09/13 12:56:46;;;;;;;;;;;21.90;96.90;;;;;;5092372;28;20134;-68
2022/09/13 12:59:34;;;;;;;;;;;22.50;95.40;;;;;;5091455;28;20479;-68
2022/09/13 13:02:00;;;;;;;;;;;22.50;95.40;;;;;;5093011;28;19946;-69
2022/09/13 13:04:29;;;;;;;;;;;22.60;94.80;;;;;;5094632;28;19924;-65
2022/09/13 13:06:57;;;;;;;;;;;22.90;92.50;;;;;;5094819;28;19931;-66
2022/09/13 13:09:29;;;;;;;;;;;22.90;92.60;;;;;;5094802;28;19924;-68
2022/09/13 13:11:56;;;;;;;;;;;22.00;95.80;;;;;;5077291;28;19924;-69
2022/09/13 13:14:43;;;;;;;;;;;21.90;99.20;;;;;;5075753;28;20055;-67
2022/09/13 13:17:27;;;;;;;;;;;21.70;99.90;;;;;;5075324;28;20303;-67
2022/09/13 13:19:52;;;;;;;;;;;21.60;99.80;;;;;;5074489;28;19924;-68
2022/09/13 13:22:37;;;;;;;;;;;21.50;99.70;;;;;;5072304;28;19924;-69
2022/09/13 13:25:22;;;;;;;;;;;22.00;99.90;;;;;;5073887;28;19935;-70
2022/09/13 13:27:50;;;;;;;;;;;22.50;96.50;;;;;;5073891;28;20610;-67
2022/09/13 13:30:35;;;;;;;;;;;22.00;94.40;;;;;;5074072;28;19924;-67
2022/09/13 13:33:04;;;;;;;;;;;21.30;97.70;;;;;;5074645;28;20570;-67
2022/09/13 13:35:31;;;;;;;;;;;21.10;98.70;;;;;;5094385;28;20485;-69
2022/09/13 13:38:13;;;;;;;;;;;21.00;99.90;;;;;;5095258;28;19969;-68
2022/09/13 13:40:39;;;;;;;;;;;20.80;99.90;;;;;;5093841;28;20528;-66
2022/09/13 13:43:15;;;;;;;;;;;21.00;99.90;;;;;;5092984;28;20371;-67
2022/09/13 13:45:55;;;;;;;;;;;21.30;99.90;;;;;;5091946;28;19929;-67
2022/09/13 13:48:35;;;;;;;;;;;21.40;98.30;;;;;;5072441;28;19931;-70
2022/09/13 13:51:10;;;;;;;;;;;21.90;95.50;;;;;;5071260;28;19947;-69
2022/09/13 13:53:36;;;;;;;;;;;21.60;91.10;;;;;;5071346;28;20407;-70
2022/09/13 13:56:07;;;;;;;;;;;21.50;91.30;;;;;;5072087;28;19927;-67
2022/09/13 13:58:47;;;;;;;;;;;21.90;91.20;;;;;;5072693;28;19955;-67
2022/09/13 14:01:19;;;;;;;;;;;21.80;90.90;;;;;;5086672;28;20342;-67
2022/09/13 14:03:51;;;;;;;;;;;21.20;95.60;;;;;;5090234;28;19930;-67
2022/09/13 14:06:23;;;;;;;;;;;21.20;97.70;;;;;;5093002;28;20259;-66
2022/09/13 14:08:49;;;;;;;;;;;21.50;97.40;;;;;;5083938;28;19931;-68
2022/09/13 14:11:14;;;;;;;;;;;21.00;99.90;;;;;;5093828;28;19923;-68
2022/09/13 14:13:47;;;;;;;;;;;21.30;99.90;;;;;;5091913;28;19931;-67
2022/09/13 14:16:31;;;;;;;;;;;21.80;99.40;;;;;;5092808;28;19945;-68
2022/09/13 14:18:56;;;;;;;;;;;21.60;99.00;;;;;;5091738;28;20196;-67
2022/09/13 14:21:23;;;;;;;;;;;21.30;99.70;;;;;;5090936;28;19924;-68
2022/09/13 14:23:50;;;;;;;;;;;21.10;99.90;;;;;;5090701;28;19927;-67
2022/09/13 14:26:15;;;;;;;;;;;22.30;98.50;;;;;;5090699;28;20011;-66
2022/09/13 14:28:41;;;;;;;;;;;22.50;92.70;;;;;;5089924;28;19919;-68
2022/09/13 14:31:07;;;;;;;;;;;22.30;92.50;;;;;;5089269;28;19924;-68